Time;durP1;ratioP1;P1;durP2;ratioP2;P2;SDS_P1;SDS_P2;PMS_P1;PMS_P2;Temp;Humidity;BMP_temperature;BMP_pressure;BME280_temperature;BME280_humidity;BME280_pressure;Samples;Min_cycle;Max_cycle;Signal;HPM_P1;HPM_P2
2023/01/26 00:00:56;;;;;;;74.55;20.92;;;;;;;-0.42;100.00;102177.97;5047993;28;20056;-74
2023/01/26 00:03:22;;;;;;;79.45;22.02;;;;;;;-0.45;100.00;102176.03;5040997;28;20073;-75
2023/01/26 00:05:47;;;;;;;75.15;20.48;;;;;;;-0.45;100.00;102180.31;5051784;28;20029;-73
2023/01/26 00:08:13;;;;;;;76.25;22.45;;;;;;;-0.44;100.00;102177.84;5040151;28;20033;-73
2023/01/26 00:10:40;;;;;;;84.65;22.13;;;;;;;-0.42;100.00;102177.97;5046761;28;20104;-73
2023/01/26 00:13:09;;;;;;;79.32;20.42;;;;;;;-0.39;100.00;102176.53;5051479;28;20032;-74
2023/01/26 00:15:35;;;;;;;76.10;21.10;;;;;;;-0.40;100.00;102177.31;5056114;28;20029;-74
2023/01/26 00:18:02;;;;;;;76.78;21.52;;;;;;;-0.39;100.00;102170.47;5040093;28;20156;-74
2023/01/26 00:20:28;;;;;;;79.18;20.38;;;;;;;-0.40;100.00;102172.13;5045437;28;20021;-74
2023/01/26 00:22:54;;;;;;;85.15;21.25;;;;;;;-0.38;100.00;102160.25;5043839;28;20480;-74
2023/01/26 00:25:20;;;;;;;82.70;23.17;;;;;;;-0.37;100.00;102156.91;5052086;28;20082;-73
2023/01/26 00:27:45;;;;;;;87.00;22.35;;;;;;;-0.40;100.00;102160.91;5065866;28;20040;-73
2023/01/26 00:30:11;;;;;;;77.40;22.00;;;;;;;-0.38;100.00;102157.66;5052385;28;20025;-73
2023/01/26 00:32:37;;;;;;;93.28;22.38;;;;;;;-0.37;100.00;102153.38;5050040;28;20600;-74
2023/01/26 00:35:03;;;;;;;92.30;23.45;;;;;;;-0.37;100.00;102156.91;5040015;28;20043;-74
2023/01/26 00:37:29;;;;;;;82.63;21.67;;;;;;;-0.35;100.00;102150.16;5035241;28;20020;-75
2023/01/26 00:39:54;;;;;;;90.50;21.98;;;;;;;-0.35;100.00;102144.09;5049496;28;20358;-75
2023/01/26 00:42:20;;;;;;;86.78;23.65;;;;;;;-0.33;100.00;102146.78;5046008;28;20469;-74
2023/01/26 00:44:46;;;;;;;84.70;23.40;;;;;;;-0.30;100.00;102142.75;5062205;28;20032;-74
2023/01/26 00:47:12;;;;;;;94.57;23.70;;;;;;;-0.33;100.00;102142.50;5051335;28;20029;-74
2023/01/26 00:49:38;;;;;;;92.35;24.60;;;;;;;-0.31;100.00;102140.03;5044588;28;20112;-74
2023/01/26 00:52:04;;;;;;;87.93;22.58;;;;;;;-0.27;100.00;102136.94;5053018;28;20506;-73
2023/01/26 00:54:30;;;;;;;86.40;23.25;;;;;;;-0.24;100.00;102137.19;5060131;28;20028;-73
2023/01/26 00:56:55;;;;;;;82.10;22.23;;;;;;;-0.24;100.00;102138.09;5046762;28;20055;-73
2023/01/26 00:59:21;;;;;;;86.70;22.48;;;;;;;-0.24;100.00;102130.34;5040359;28;20017;-73
2023/01/26 01:01:47;;;;;;;102.18;25.73;;;;;;;-0.24;100.00;102119.09;5041510;28;20209;-74
2023/01/26 01:04:13;;;;;;;85.00;22.88;;;;;;;-0.24;100.00;102122.56;5039263;28;20484;-73
2023/01/26 01:06:40;;;;;;;88.78;23.58;;;;;;;-0.22;100.00;102120.09;5047983;28;20072;-74
2023/01/26 01:09:06;;;;;;;89.18;24.20;;;;;;;-0.23;100.00;102119.22;5058805;28;20045;-75
2023/01/26 01:11:31;;;;;;;88.80;24.20;;;;;;;-0.23;100.00;102123.47;5047743;28;20568;-73
2023/01/26 01:13:56;;;;;;;95.70;24.00;;;;;;;-0.24;100.00;102120.00;5054320;28;20116;-73
2023/01/26 01:16:22;;;;;;;95.95;24.05;;;;;;;-0.22;100.00;102110.69;5051009;28;20025;-76
2023/01/26 01:18:53;;;;;;;91.93;24.45;;;;;;;-0.19;100.00;102121.28;5046674;28;20115;-73
2023/01/26 01:21:19;;;;;;;99.05;24.77;;;;;;;-0.21;100.00;102116.75;5048838;28;20025;-75
2023/01/26 01:23:44;;;;;;;84.97;22.83;;;;;;;-0.17;100.00;102121.38;5044434;28;20086;-74
2023/01/26 01:26:10;;;;;;;95.40;25.35;;;;;;;-0.20;100.00;102114.28;5058119;28;20033;-73
2023/01/26 01:28:36;;;;;;;96.72;23.05;;;;;;;-0.22;100.00;102112.34;5060153;28;20461;-74
2023/01/26 01:31:06;;;;;;;112.97;26.70;;;;;;;-0.23;100.00;102118.28;5052990;28;20115;-74
2023/01/26 01:33:32;;;;;;;100.70;25.85;;;;;;;-0.23;100.00;102118.28;5049615;28;20025;-74
2023/01/26 01:35:59;;;;;;;99.13;27.50;;;;;;;-0.25;100.00;102119.88;5048176;28;20510;-73
2023/01/26 01:38:26;;;;;;;92.93;25.52;;;;;;;-0.23;100.00;102121.81;5051904;28;20025;-73
2023/01/26 01:40:52;;;;;;;100.15;25.23;;;;;;;-0.21;100.00;102127.09;5044334;28;20029;-74
2023/01/26 01:43:18;;;;;;;106.60;25.63;;;;;;;-0.20;100.00;102118.56;5056628;28;20024;-74
2023/01/26 01:45:47;;;;;;;100.70;25.30;;;;;;;-0.20;100.00;102122.03;5053257;28;20354;-73
2023/01/26 01:48:19;;;;;;;103.55;26.50;;;;;;;-0.20;100.00;102128.91;5049892;28;20051;-73
2023/01/26 01:50:45;;;;;;;115.95;27.05;;;;;;;-0.16;100.00;102125.78;5045987;28;20075;-73
2023/01/26 01:53:17;;;;;;;117.55;27.70;;;;;;;-0.15;100.00;102119.81;5058364;28;20074;-74
2023/01/26 01:55:44;;;;;;;112.80;26.98;;;;;;;-0.17;100.00;102121.38;5065859;28;20471;-73
2023/01/26 01:58:11;;;;;;;99.90;24.85;;;;;;;-0.15;100.00;102121.50;5051477;28;20021;-73
2023/01/26 02:00:36;;;;;;;113.47;26.88;;;;;;;-0.15;100.00;102116.34;5047632;28;20059;-74
2023/01/26 02:03:10;;;;;;;112.07;27.10;;;;;;;-0.11;100.00;102116.72;5057984;28;20488;-73
2023/01/26 02:06:04;;;;;;;110.05;27.15;;;;;;;-0.08;100.00;102116.97;5055161;28;20032;-73
2023/01/26 02:08:36;;;;;;;;;;;;;;;-0.07;100.00;102121.34;5028946;28;20132;-74
2023/01/26 02:11:06;;;;;;;113.00;26.08;;;;;;;-0.07;100.00;102118.78;5047538;28;19916;-73
2023/01/26 02:13:33;;;;;;;120.72;28.55;;;;;;;-0.03;100.00;102114.72;5036868;28;20040;-74
2023/01/26 02:15:59;;;;;;;112.68;25.42;;;;;;;-0.08;100.00;102108.28;5049015;28;20028;-74
2023/01/26 02:18:26;;;;;;;108.93;28.38;;;;;;;-0.01;100.00;102121.84;5049326;28;20527;-73
2023/01/26 02:20:57;;;;;;;117.97;27.30;;;;;;;-0.05;100.00;102111.13;5038141;28;20083;-75
2023/01/26 02:24:07;;;;;;;122.07;27.25;;;;;;;-0.07;100.00;102115.25;5051198;28;20025;-72
2023/01/26 02:26:35;;;;;;;107.53;27.17;;;;;;;-0.04;100.00;102116.41;4969726;28;20423;-73
2023/01/26 02:29:01;;;;;;;109.68;28.70;;;;;;;-0.06;100.00;102114.50;5031769;28;20048;-73
2023/01/26 02:31:27;;;;;;;115.10;28.08;;;;;;;-0.04;100.00;102111.25;5055862;28;20029;-74
2023/01/26 02:33:53;;;;;;;109.95;27.60;;;;;;;0.01;100.00;102115.88;5046743;28;20036;-73
2023/01/26 02:36:21;;;;;;;132.48;30.23;;;;;;;-0.01;100.00;102111.47;5048581;28;20057;-73
2023/01/26 02:39:19;;;;;;;126.35;29.10;;;;;;;-0.01;100.00;102110.59;5060132;28;20157;-73
2023/01/26 02:44:31;;;;;;;138.95;31.52;;;;;;;0.03;100.00;102112.63;5047180;28;20033;-74
2023/01/26 02:46:57;;;;;;;119.53;28.88;;;;;;;0.01;100.00;102121.06;5046961;28;20082;-73
2023/01/26 02:52:07;;;;;;;137.52;29.45;;;;;;;0.01;100.00;102128.81;5054320;28;20041;-74
2023/01/26 02:57:16;;;;;;;;;;;;;;;0.03;100.00;102129.84;5064476;28;20104;-74
2023/01/26 02:59:41;;;;;;;113.40;28.08;;;;;;;0.03;100.00;102132.41;5056263;28;20280;-73
2023/01/26 03:02:07;;;;;;;113.90;27.50;;;;;;;0.07;100.00;102125.03;5047777;28;20530;-73
2023/01/26 03:04:32;;;;;;;113.70;27.13;;;;;;;0.06;100.00;102128.41;5037489;28;20063;-73
2023/01/26 03:06:58;;;;;;;122.97;29.20;;;;;;;0.07;100.00;102134.47;5050491;28;20487;-72
2023/01/26 03:09:23;;;;;;;131.18;30.08;;;;;;;0.06;100.00;102123.22;5056922;28;20024;-73
2023/01/26 03:11:48;;;;;;;125.20;28.17;;;;;;;0.09;100.00;102127.75;5053439;28;20024;-73
2023/01/26 03:14:14;;;;;;;121.75;28.98;;;;;;;0.07;100.00;102127.63;5052269;28;20033;-73
2023/01/26 03:16:40;;;;;;;115.43;28.27;;;;;;;0.09;100.00;102122.56;5057129;28;20055;-74
2023/01/26 03:29:45;;;;;;;125.78;29.77;;;;;;;0.15;100.00;102133.44;5055024;28;20043;-74
2023/01/26 03:32:11;;;;;;;122.65;27.55;;;;;;;0.14;100.00;102123.84;5051280;28;20536;-74
2023/01/26 03:34:36;;;;;;;114.10;27.02;;;;;;;0.15;100.00;102123.97;5067051;28;20403;-73
2023/01/26 03:37:03;;;;;;;129.77;28.27;;;;;;;0.18;100.00;102128.47;5064520;28;20056;-73
2023/01/26 03:59:06;;;;;;;109.63;25.75;;;;;;;0.20;100.00;102132.09;5042070;28;20033;-73
2023/01/26 04:01:33;;;;;;;102.43;27.55;;;;;;;0.19;100.00;102127.72;5042505;28;20030;-73
2023/01/26 04:09:28;;;;;;;103.78;25.17;;;;;;;0.24;100.00;102128.94;5044072;28;19938;-74
2023/01/26 04:11:53;;;;;;;116.25;26.88;;;;;;;0.26;100.00;102127.41;5046875;28;20036;-74
2023/01/26 04:22:39;;;;;;;128.05;27.98;;;;;;;0.33;100.00;102124.50;5047823;28;20373;-72
2023/01/26 04:25:08;;;;;;;123.28;26.88;;;;;;;0.36;100.00;102129.03;5044742;28;20070;-74
2023/01/26 04:27:34;;;;;;;129.43;28.77;;;;;;;0.38;100.00;102126.56;5050529;28;20040;-73
2023/01/26 04:30:00;;;;;;;127.18;28.63;;;;;;;0.39;100.00;102129.25;5033690;28;20024;-73
2023/01/26 04:32:26;;;;;;;128.25;27.10;;;;;;;0.40;100.00;102123.31;5039786;28;20030;-74
2023/01/26 04:34:51;;;;;;;109.55;26.05;;;;;;;0.42;100.00;102129.53;5047648;28;20071;-73
2023/01/26 04:37:17;;;;;;;120.47;27.60;;;;;;;0.43;100.00;102127.81;5043296;28;20472;-73
2023/01/26 04:39:42;;;;;;;104.70;24.25;;;;;;;0.45;100.00;102123.69;5061814;28;20032;-73
2023/01/26 04:42:08;;;;;;;127.15;27.80;;;;;;;0.46;100.00;102120.28;5051328;28;20025;-74
2023/01/26 04:44:33;;;;;;;106.90;24.77;;;;;;;0.47;100.00;102122.09;5043226;28;20017;-74
2023/01/26 04:46:58;;;;;;;112.45;24.02;;;;;;;0.47;100.00;102140.22;5045731;28;20634;-73
2023/01/26 04:49:24;;;;;;;116.72;25.90;;;;;;;0.49;100.00;102130.91;5059087;28;20032;-73
2023/01/26 04:51:49;;;;;;;106.40;25.50;;;;;;;0.52;100.00;102125.03;5052563;28;20480;-73
2023/01/26 04:54:14;;;;;;;109.97;26.27;;;;;;;0.51;100.00;102129.31;5061684;28;20369;-74
2023/01/26 04:56:40;;;;;;;96.53;24.20;;;;;;;0.55;100.00;102127.88;5050298;28;20068;-74
2023/01/26 04:59:07;;;;;;;129.68;27.45;;;;;;;0.56;100.00;102128.00;5059440;28;20517;-73
2023/01/26 05:01:32;;;;;;;96.53;23.48;;;;;;;0.61;100.00;102136.13;5049192;28;20028;-73
2023/01/26 05:04:02;;;;;;;96.68;23.30;;;;;;;0.62;100.00;102128.47;5042676;28;20045;-74
2023/01/26 05:06:28;;;;;;;125.13;26.88;;;;;;;0.64;100.00;102129.50;5037587;28;20029;-73
2023/01/26 05:08:55;;;;;;;116.15;26.00;;;;;;;0.65;100.00;102123.53;5049214;28;20163;-73
2023/01/26 05:11:20;;;;;;;93.78;24.10;;;;;;;0.65;100.00;102128.72;5055060;28;20029;-73
2023/01/26 05:13:46;;;;;;;119.78;24.92;;;;;;;0.67;100.00;102127.13;5057537;28;20032;-74
2023/01/26 05:16:13;;;;;;;122.63;26.38;;;;;;;0.67;100.00;102128.84;5055356;28;20025;-73
2023/01/26 05:18:39;;;;;;;130.95;28.40;;;;;;;0.68;100.00;102130.66;5057096;28;20032;-74
2023/01/26 05:21:05;;;;;;;127.10;25.27;;;;;;;0.69;100.00;102135.00;5055378;28;20028;-75
2023/01/26 05:23:30;;;;;;;104.80;25.40;;;;;;;0.72;100.00;102132.69;5053351;28;20027;-73
2023/01/26 05:25:55;;;;;;;100.70;26.00;;;;;;;0.75;100.00;102119.06;5057669;28;20147;-73
2023/01/26 05:28:21;;;;;;;123.05;27.48;;;;;;;0.77;100.00;102127.84;5053416;28;20031;-73
2023/01/26 05:30:49;;;;;;;115.43;23.83;;;;;;;0.77;100.00;102122.66;5058050;28;20111;-74
2023/01/26 05:33:15;;;;;;;115.05;26.27;;;;;;;0.81;100.00;102127.28;5053465;28;20035;-73
2023/01/26 05:35:40;;;;;;;111.40;23.85;;;;;;;0.82;100.00;102122.22;5049393;28;20021;-73
2023/01/26 05:38:06;;;;;;;123.90;24.05;;;;;;;0.86;100.00;102127.66;5045178;28;20040;-73
2023/01/26 05:40:34;;;;;;;111.82;25.55;;;;;;;0.87;100.00;102125.19;5053347;28;20029;-73
2023/01/26 05:43:00;;;;;;;118.22;25.20;;;;;;;0.89;100.00;102131.38;5045727;28;20048;-73
2023/01/26 05:45:25;;;;;;;111.43;25.58;;;;;;;0.90;100.00;102129.72;5039513;28;20025;-74
2023/01/26 05:47:50;;;;;;;109.03;22.95;;;;;;;0.91;100.00;102137.59;5044856;28;20039;-74
2023/01/26 05:50:16;;;;;;;100.25;24.05;;;;;;;0.94;100.00;102130.03;5047041;28;20055;-73
2023/01/26 05:52:43;;;;;;;118.05;24.20;;;;;;;0.96;100.00;102141.44;5049319;28;20055;-72
2023/01/26 05:55:08;;;;;;;95.25;21.65;;;;;;;0.99;100.00;102146.84;5050525;28;20029;-74
2023/01/26 05:57:34;;;;;;;100.38;22.92;;;;;;;1.00;100.00;102139.97;5049550;28;20461;-74
2023/01/26 05:59:59;;;;;;;103.00;24.52;;;;;;;1.03;100.00;102147.09;5049779;28;20060;-73
2023/01/26 06:02:27;;;;;;;93.28;20.15;;;;;;;1.03;100.00;102147.09;5043747;28;20389;-73
2023/01/26 06:04:53;;;;;;;118.18;23.20;;;;;;;1.04;100.00;102141.13;5056429;28;20482;-72
2023/01/26 06:07:18;;;;;;;92.55;20.85;;;;;;;1.07;100.00;102136.16;5042596;28;20083;-74
2023/01/26 06:09:44;;;;;;;77.93;19.08;;;;;;;1.10;100.00;102144.16;5048678;28;20264;-73
2023/01/26 06:12:14;;;;;;;76.50;19.48;;;;;;;1.12;100.00;102146.09;5045201;28;20468;-73
2023/01/26 06:14:39;;;;;;;90.13;19.08;;;;;;;1.14;100.00;102143.59;5051852;28;20052;-73
2023/01/26 06:17:05;;;;;;;80.90;18.67;;;;;;;1.15;100.00;102143.75;5050583;28;20432;-74
2023/01/26 06:19:30;;;;;;;71.35;17.45;;;;;;;1.18;100.00;102148.22;5056290;28;20048;-74
2023/01/26 06:21:55;;;;;;;73.10;16.63;;;;;;;1.22;100.00;102149.38;5044591;28;20029;-74
2023/01/26 06:24:22;;;;;;;63.17;15.00;;;;;;;1.27;100.00;102148.94;5052131;28;20021;-73
2023/01/26 06:26:48;;;;;;;75.70;15.48;;;;;;;1.32;100.00;102157.97;5047015;28;20017;-72
2023/01/26 06:29:14;;;;;;;74.25;14.98;;;;;;;1.37;100.00;102160.00;5051809;28;20446;-72
2023/01/26 06:31:40;;;;;;;62.13;13.95;;;;;;;1.42;100.00;102163.84;5049668;28;20028;-73
2023/01/26 06:34:05;;;;;;;56.58;12.43;;;;;;;1.48;100.00;102162.63;5048027;28;20079;-74
2023/01/26 06:36:31;;;;;;;52.85;11.77;;;;;;;1.56;100.00;102157.09;5048481;28;21293;-74
2023/01/26 06:38:57;;;;;;;47.88;11.00;;;;;;;1.62;100.00;102163.63;5051069;28;20029;-74
2023/01/26 06:41:22;;;;;;;42.58;10.40;;;;;;;1.69;100.00;102165.00;5050326;28;20024;-74
2023/01/26 06:43:48;;;;;;;53.90;10.63;;;;;;;1.74;100.00;102170.53;5049634;28;20017;-73
2023/01/26 06:46:14;;;;;;;57.55;9.30;;;;;;;1.81;100.00;102178.88;5049900;28;20029;-73
2023/01/26 06:48:40;;;;;;;47.28;8.07;;;;;;;1.87;100.00;102181.00;5064483;28;20028;-72
2023/01/26 06:51:14;;;;;;;57.70;7.50;;;;;;;1.99;100.00;102176.75;5047598;28;20028;-73
2023/01/26 06:53:42;;;;;;;30.90;6.07;;;;;;;2.05;100.00;102184.06;5048063;28;20366;-73
2023/01/26 06:56:08;;;;;;;47.10;5.97;;;;;;;2.18;100.00;102188.44;5051095;28;20017;-74
2023/01/26 06:58:33;;;;;;;60.92;5.15;;;;;;;2.30;100.00;102189.31;5048605;28;20111;-73
2023/01/26 07:00:59;;;;;;;52.10;4.93;;;;;;;2.39;100.00;102199.50;5048911;28;20029;-72
2023/01/26 07:03:24;;;;;;;34.88;4.45;;;;;;;2.43;100.00;102198.91;5050497;28;20048;-71
2023/01/26 07:05:50;;;;;;;26.58;3.88;;;;;;;2.49;100.00;102195.84;5050366;28;20032;-73
2023/01/26 07:08:15;;;;;;;32.92;4.00;;;;;;;2.59;100.00;102198.31;5053503;28;20028;-72
2023/01/26 07:10:40;;;;;;;46.85;3.10;;;;;;;2.66;100.00;102199.66;5053498;28;20020;-72
2023/01/26 07:13:06;;;;;;;41.38;3.22;;;;;;;2.70;100.00;102192.16;5072343;28;20052;-73
2023/01/26 07:15:32;;;;;;;41.20;3.33;;;;;;;2.74;100.00;102200.16;5065321;28;20047;-73
2023/01/26 07:17:58;;;;;;;44.67;5.28;;;;;;;2.74;100.00;102197.56;5060310;28;20033;-73
2023/01/26 07:20:24;;;;;;;35.13;3.97;;;;;;;2.74;100.00;102198.50;5051732;28;20105;-75
2023/01/26 07:22:50;;;;;;;53.08;3.80;;;;;;;2.67;100.00;102197.16;5054026;28;20124;-73
2023/01/26 07:25:16;;;;;;;41.67;3.20;;;;;;;2.67;100.00;102202.34;5048382;28;20017;-73
2023/01/26 07:27:42;;;;;;;45.70;3.60;;;;;;;2.66;100.00;102205.75;5051656;28;20025;-74
2023/01/26 07:30:08;;;;;;;32.00;2.83;;;;;;;2.60;100.00;102207.00;5049382;28;20346;-75
2023/01/26 07:32:34;;;;;;;39.15;3.35;;;;;;;2.56;100.00;102208.47;5049453;28;20033;-74
2023/01/26 07:34:59;;;;;;;32.33;2.90;;;;;;;2.51;100.00;102213.34;5046381;28;20021;-74
2023/01/26 07:37:28;;;;;;;38.85;3.42;;;;;;;2.47;100.00;102221.72;5046224;28;20447;-74
2023/01/26 07:39:54;;;;;;;38.90;4.13;;;;;;;2.44;100.00;102223.19;5047781;28;20473;-74
2023/01/26 07:42:19;;;;;;;33.72;3.55;;;;;;;2.43;100.00;102231.75;5053430;28;20056;-73
2023/01/26 07:44:46;;;;;;;43.50;3.90;;;;;;;2.42;100.00;102232.59;5041339;28;20021;-73
2023/01/26 07:47:13;;;;;;;24.02;3.42;;;;;;;2.39;100.00;102230.66;5051789;28;20025;-76
2023/01/26 07:49:39;;;;;;;36.03;3.47;;;;;;;2.34;100.00;102238.09;5054272;28;20041;-74
2023/01/26 07:52:04;;;;;;;19.45;3.45;;;;;;;2.32;100.00;102247.50;5055611;28;20110;-76
2023/01/26 07:54:29;;;;;;;34.80;3.97;;;;;;;2.29;100.00;102249.88;5066351;28;20028;-75
2023/01/26 07:56:55;;;;;;;24.92;2.65;;;;;;;2.24;100.00;102246.03;5058038;28;20024;-75
2023/01/26 07:59:22;;;;;;;37.40;3.47;;;;;;;2.24;100.00;102248.63;5055778;28;20484;-75
2023/01/26 08:01:49;;;;;;;26.00;4.40;;;;;;;2.20;100.00;102238.81;5055087;28;20520;-75
2023/01/26 08:04:15;;;;;;;38.92;3.22;;;;;;;2.15;100.00;102253.16;5050289;28;20044;-74
2023/01/26 08:06:40;;;;;;;34.35;3.05;;;;;;;2.12;100.00;102256.41;5054613;28;20025;-74
2023/01/26 08:09:05;;;;;;;41.85;3.28;;;;;;;2.11;100.00;102261.50;5053741;28;20070;-74
2023/01/26 08:11:31;;;;;;;27.30;2.67;;;;;;;2.12;100.00;102269.41;5053654;28;20021;-74
2023/01/26 08:13:56;;;;;;;37.00;2.90;;;;;;;2.11;100.00;102265.00;5053900;28;20043;-74
2023/01/26 08:16:21;;;;;;;36.25;3.33;;;;;;;2.11;100.00;102258.91;5059318;28;20020;-74
2023/01/26 08:18:47;;;;;;;31.17;3.05;;;;;;;2.14;100.00;102269.50;5054456;28;20029;-75
2023/01/26 08:21:14;;;;;;;29.60;3.35;;;;;;;2.17;100.00;102264.53;5055008;28;20071;-75
2023/01/26 08:23:39;;;;;;;35.17;3.35;;;;;;;2.16;100.00;102262.75;5048522;28;20079;-74
2023/01/26 08:26:08;;;;;;;26.60;2.95;;;;;;;2.17;100.00;102272.31;5054110;28;20029;-75
2023/01/26 08:28:34;;;;;;;20.92;1.90;;;;;;;2.16;100.00;102270.53;5053353;28;20033;-75
2023/01/26 08:31:11;;;;;;;21.58;2.17;;;;;;;2.16;100.00;102273.13;5052406;28;20400;-75
2023/01/26 08:33:38;;;;;;;29.77;2.83;;;;;;;2.19;100.00;102273.34;5052833;28;20041;-75
2023/01/26 08:36:06;;;;;;;17.85;2.50;;;;;;;2.22;100.00;102270.97;5052086;28;20028;-74
2023/01/26 08:38:33;;;;;;;32.45;3.60;;;;;;;2.26;100.00;102275.59;5051844;28;20037;-74
2023/01/26 08:40:59;;;;;;;39.03;3.63;;;;;;;2.28;100.00;102273.13;5051358;28;20499;-75
2023/01/26 08:43:25;;;;;;;43.30;4.25;;;;;;;2.32;100.00;102280.34;5052825;28;20540;-74
2023/01/26 08:45:51;;;;;;;35.60;3.38;;;;;;;2.39;100.00;102284.28;5055171;28;20107;-74
2023/01/26 08:48:17;;;;;;;30.38;2.47;;;;;;;2.43;100.00;102279.44;5051521;28;20035;-74
2023/01/26 08:50:44;;;;;;;33.88;3.10;;;;;;;2.47;100.00;102275.34;5053545;28;20469;-74
2023/01/26 08:53:09;;;;;;;43.88;3.50;;;;;;;2.53;100.00;102278.41;5050010;28;20033;-74
2023/01/26 08:55:35;;;;;;;30.77;3.05;;;;;;;2.59;100.00;102280.53;5053284;28;20396;-73
2023/01/26 08:58:00;;;;;;;46.97;3.88;;;;;;;2.65;100.00;102281.91;5065016;28;20028;-74
2023/01/26 09:00:26;;;;;;;25.90;3.15;;;;;;;2.69;100.00;102283.03;5070459;28;20032;-75
2023/01/26 09:03:02;;;;;;;42.80;3.90;;;;;;;2.78;100.00;102294.09;5052698;28;20075;-74
2023/01/26 09:05:32;;;;;;;36.30;3.00;;;;;;;2.82;100.00;102290.00;5053884;28;20029;-75
2023/01/26 09:07:57;;;;;;;25.77;2.35;;;;;;;2.89;100.00;102293.94;5052091;28;20025;-73
2023/01/26 09:10:22;;;;;;;53.83;4.22;;;;;;;2.95;100.00;102303.06;5058724;28;20044;-74
2023/01/26 09:12:48;;;;;;;27.35;2.70;;;;;;;3.01;100.00;102305.19;5053862;28;20741;-74
2023/01/26 09:15:13;;;;;;;37.25;3.38;;;;;;;3.07;100.00;102299.56;5053026;28;20020;-74
2023/01/26 09:17:40;;;;;;;33.50;3.03;;;;;;;3.18;100.00;102306.41;5053896;28;20035;-74
2023/01/26 09:20:07;;;;;;;41.17;3.58;;;;;;;3.27;100.00;102307.06;5054257;28;20025;-73
2023/01/26 09:22:32;;;;;;;27.85;3.90;;;;;;;3.45;100.00;102312.63;5053908;28;20111;-74
2023/01/26 09:24:58;;;;;;;19.73;4.10;;;;;;;3.60;100.00;102312.78;5053358;28;20112;-74
2023/01/26 09:27:23;;;;;;;44.05;3.80;;;;;;;3.72;100.00;102313.63;5050720;28;20035;-74
2023/01/26 09:29:49;;;;;;;46.42;4.25;;;;;;;3.79;100.00;102319.25;5057544;28;20492;-74
2023/01/26 09:32:14;;;;;;;38.15;3.05;;;;;;;3.87;100.00;102302.44;5052246;28;20033;-74
2023/01/26 09:34:39;;;;;;;33.55;3.38;;;;;;;4.04;100.00;102307.09;5068918;28;20480;-73
2023/01/26 09:37:08;;;;;;;34.03;2.90;;;;;;;4.22;100.00;102316.94;5057016;28;20388;-73
2023/01/26 09:39:34;;;;;;;42.90;3.97;;;;;;;4.50;100.00;102305.69;5064856;28;20013;-74
2023/01/26 09:42:05;;;;;;;29.10;3.50;;;;;;;4.71;100.00;102309.69;5055957;28;20451;-73
2023/01/26 09:44:40;;;;;;;23.23;2.90;;;;;;;4.92;100.00;102298.81;5053314;28;20025;-74
2023/01/26 09:47:30;;;;;;;36.53;3.35;;;;;;;4.77;100.00;102303.94;5054615;28;20472;-74
2023/01/26 09:50:15;;;;;;;27.83;3.30;;;;;;;4.91;100.00;102304.84;5053127;28;20032;-75
2023/01/26 09:53:06;;;;;;;45.22;4.95;;;;;;;5.16;100.00;102309.00;5058237;28;20017;-73
2023/01/26 09:55:32;;;;;;;39.78;3.05;;;;;;;5.39;100.00;102311.28;5045740;28;20024;-74
2023/01/26 09:58:11;;;;;;;36.15;4.68;;;;;;;5.50;100.00;102313.69;5051099;28;20032;-74
2023/01/26 10:00:45;;;;;;;51.85;5.45;;;;;;;5.67;100.00;102310.38;5051986;28;20483;-75
2023/01/26 10:03:30;;;;;;;32.78;3.30;;;;;;;5.71;100.00;102311.44;5053535;28;20425;-72
2023/01/26 10:06:05;;;;;;;26.77;2.67;;;;;;;5.91;100.00;102315.25;5052813;28;20032;-72
2023/01/26 10:08:30;;;;;;;27.45;2.63;;;;;;;5.93;100.00;102320.56;5063833;28;20480;-74
2023/01/26 10:11:03;;;;;;;35.65;2.58;;;;;;;6.16;100.00;102327.19;5053015;28;20027;-74
2023/01/26 10:13:29;;;;;;;24.75;2.90;;;;;;;6.34;100.00;102317.78;5071885;28;20040;-73
2023/01/26 10:16:02;;;;;;;28.17;3.03;;;;;;;6.56;100.00;102313.81;5053057;28;20043;-74
2023/01/26 10:18:33;;;;;;;37.28;2.90;;;;;;;6.64;100.00;102322.97;5055281;28;20037;-73
2023/01/26 10:21:01;;;;;;;18.92;3.47;;;;;;;6.63;100.00;102331.63;5055977;28;20058;-73
2023/01/26 10:23:32;;;;;;;25.67;2.72;;;;;;;6.86;100.00;102324.19;5070554;28;20028;-73
2023/01/26 10:26:06;;;;;;;22.80;3.30;;;;;;;7.17;100.00;102323.25;5068850;28;20028;-72
2023/01/26 10:28:34;;;;;;;27.38;4.28;;;;;;;7.07;100.00;102321.88;5056321;28;20115;-72
2023/01/26 10:31:05;;;;;;;18.05;2.90;;;;;;;7.39;100.00;102333.16;5051053;28;20024;-73
2023/01/26 10:33:35;;;;;;;23.77;3.40;;;;;;;7.38;100.00;102332.28;5052307;28;20077;-72
2023/01/26 10:36:04;;;;;;;21.45;3.88;;;;;;;7.41;100.00;102332.44;5051220;28;20036;-73
2023/01/26 10:38:36;;;;;;;13.15;1.95;;;;;;;7.73;100.00;102333.25;5065263;28;20024;-72
2023/01/26 10:41:17;;;;;;;13.02;2.28;;;;;;;7.80;100.00;102337.09;5060541;28;20064;-74
2023/01/26 10:43:58;;;;;;;23.98;3.10;;;;;;;7.93;100.00;102343.84;5052354;28;20017;-73
2023/01/26 10:46:32;;;;;;;21.42;2.72;;;;;;;8.44;100.00;102346.41;5060902;28;20087;-73
2023/01/26 10:49:01;;;;;;;19.05;2.53;;;;;;;8.59;100.00;102343.69;5067760;28;20123;-73
2023/01/26 10:51:32;;;;;;;21.75;2.72;;;;;;;8.71;100.00;102346.91;5068156;28;20112;-73
2023/01/26 10:54:16;;;;;;;25.00;2.33;;;;;;;8.69;100.00;102347.66;5048796;28;20041;-73
2023/01/26 10:56:52;;;;;;;18.00;2.30;;;;;;;8.85;100.00;102354.53;5059071;28;20044;-73
2023/01/26 10:59:24;;;;;;;16.45;2.55;;;;;;;9.57;100.00;102346.47;5060986;28;20481;-73
2023/01/26 11:01:55;;;;;;;20.20;2.53;;;;;;;9.68;100.00;102345.22;5068770;28;20035;-73
2023/01/26 11:04:21;;;;;;;18.88;3.22;;;;;;;9.75;100.00;102342.06;5064716;28;20044;-73
2023/01/26 11:06:47;;;;;;;15.05;2.30;;;;;;;10.01;100.00;102334.41;5044110;28;20071;-73
2023/01/26 11:09:12;;;;;;;19.27;2.17;;;;;;;10.09;100.00;102338.25;5051599;28;20427;-72
2023/01/26 11:11:37;;;;;;;15.45;1.85;;;;;;;10.39;100.00;102337.78;5051138;28;20029;-73
2023/01/26 11:14:17;;;;;;;15.50;2.35;;;;;;;10.43;100.00;102339.69;5050858;28;20392;-74
2023/01/26 11:17:07;;;;;;;19.92;2.00;;;;;;;10.45;100.00;102327.47;5047400;28;20506;-75
2023/01/26 11:19:57;;;;;;;19.23;2.55;;;;;;;10.52;100.00;102330.38;5051274;28;20017;-73
2023/01/26 11:22:51;;;;;;;14.82;1.88;;;;;;;10.52;100.00;102333.00;5057876;28;20021;-74
2023/01/26 11:25:24;;;;;;;15.20;2.33;;;;;;;10.73;100.00;102339.16;5058371;28;20090;-73
2023/01/26 11:28:04;;;;;;;16.00;2.03;;;;;;;11.09;100.00;102337.88;5052278;28;20033;-73
2023/01/26 11:30:51;;;;;;;13.52;1.92;;;;;;;10.79;100.00;102331.47;5062787;28;20099;-73
2023/01/26 11:33:23;;;;;;;13.02;2.15;;;;;;;10.73;100.00;102332.97;5043433;28;20036;-73
2023/01/26 11:35:54;;;;;;;12.35;1.98;;;;;;;10.80;100.00;102335.91;5049878;28;20040;-72
2023/01/26 11:38:28;;;;;;;12.10;2.03;;;;;;;11.10;100.00;102327.41;5052162;28;20056;-73
2023/01/26 11:41:07;;;;;;;12.73;1.98;;;;;;;11.51;100.00;102331.53;5069494;28;20025;-73
2023/01/26 11:43:52;;;;;;;14.95;2.30;;;;;;;11.12;99.31;102333.66;5064918;28;20488;-72
2023/01/26 11:46:44;;;;;;;17.88;1.95;;;;;;;11.06;100.00;102332.50;5051788;28;20029;-72
2023/01/26 11:49:42;;;;;;;19.60;2.15;;;;;;;10.41;100.00;102340.47;5050748;28;20032;-73
2023/01/26 11:52:18;;;;;;;15.15;1.88;;;;;;;9.85;100.00;102330.19;5046588;28;20036;-72
2023/01/26 11:54:52;;;;;;;18.75;2.40;;;;;;;9.57;100.00;102331.59;5064832;28;20029;-73
2023/01/26 11:57:36;;;;;;;11.75;1.75;;;;;;;9.22;100.00;102330.88;5067911;28;20499;-73
2023/01/26 12:00:16;;;;;;;22.02;2.38;;;;;;;8.94;100.00;102333.97;5052909;28;20415;-73
2023/01/26 12:02:44;;;;;;;13.20;2.05;;;;;;;8.58;100.00;102329.63;5067140;28;20020;-74
2023/01/26 12:05:22;;;;;;;25.40;1.88;;;;;;;8.28;100.00;102322.03;5052500;28;20045;-73
2023/01/26 12:07:53;;;;;;;12.10;1.25;;;;;;;8.20;100.00;102319.88;5052174;28;20507;-73